Terminal Aerodrome Forecast
Issued by NWS Nashville, TN

Home | Current Version | Previous Version | Text Only | Print | Product List | Glossary On
Versions: 1 2 3 4 5 6 7 8 9 10 11 12 13 14 15
000
FTUS44 KOHX 270520
TAFBNA
TAF
KBNA 270520Z 2706/2806 05007KT P6SM BKN050 BKN120
     FM271500 05006KT P6SM SCT050
     FM280000 06003KT P6SM SKC=

USA.gov is the U.S. government's official web portal to all federal, state and local government web resources and services.